Portland, Oregon
Traffic Map
Current Weather Conditions
Portland, Oregon
Broken Clouds
Broken Clouds
63°
Feels Like: 63°
Wind Chill: 63° Ceiling: 3400
Heat Index: 63° Visibility: 10mi
Dew Point: 52° Wind: 5mph
Humidity: 67% Direction: 360° (N)
Pressure: 29.98in Gusts: 0mph
Raw Report DataKPDX 201553Z 36004KT 10SM FEW020 BKN034 17/11 A2998 RMK AO2 SLP152 T01720111
Traffic Incident Summary
Active as of:
Severity:
Category:
InformationThere was an issue retrieving the traffic information for this location. Please try a different location or try again shortly.
Advertisements
Track Severe Weather on mobile